NCAR-RAP Real-Time Weather Data

Output produced by METARs form (06 May 2021  14:52 UTC)
found at http://weather.rap.ucar.edu/surface/
 
KIOW 061352Z AUTO 01012G21KT 10SM BKN021 OVC026 10/04 A3016 RMK AO2 SLP215 T01000044
KIOW 061306Z AUTO 01013KT 10SM BKN017 OVC085 10/05 A3015 RMK AO2 T01000050
KIOW 061252Z AUTO 36015G21KT 10SM FEW017 OVC085 10/05 A3015 RMK AO2 SLP209 T01000050
KIOW 061152Z AUTO 01010KT 10SM BKN070 09/04 A3012 RMK AO2 SLP198 60000 T00940044 10144 20089 51019
KIOW 061052Z AUTO 01010G19KT 10SM BKN070 BKN100 09/04 A3009 RMK AO2 PK WND 02026/1032 RAB01E14 SLP190 P0000 T00940044
KIOW 060952Z AUTO 36014G24KT 10SM OVC075 12/04 A3008 RMK AO2 SLP187 T01170044
KIOW 060852Z AUTO 00000KT 10SM OVC095 13/06 A3006 RMK AO2 RAB0754E03 SLP178 P0000 60000 T01330056 56015
KIOW 060752Z AUTO 13003KT 10SM FEW060 BKN075 OVC090 13/06 A3007 RMK AO2 SLP182 T01280056
KIOW 060652Z AUTO 00000KT 10SM OVC110 14/06 A3008 RMK AO2 SLP186 T01390056
KIOW 060552Z AUTO 18003KT 10SM OVC080 13/06 A3010 RMK AO2 SLP194 T01330061 10178 20128 401890044 56006
KIOW 060452Z AUTO 00000KT 10SM BKN090 BKN110 13/06 A3010 RMK AO2 SLP194 T01280061
KIOW 060352Z AUTO 00000KT 10SM OVC075 16/04 A3012 RMK AO2 SLP197 T01560039
KIOW 060252Z AUTO 18005KT 10SM OVC075 16/02 A3012 RMK AO2 SLP199 T01610022 53005
KIOW 060152Z AUTO 18005KT 10SM SCT095 OVC120 16/03 A3011 RMK AO2 SLP196 T01560033
KIOW 060052Z AUTO 20005KT 10SM FEW090 BKN110 17/02 A3010 RMK AO2 SLP195 T01670017